createdAt,value
2018-06-04T00:02:03.216Z,16.90
2018-06-04T00:04:31.007Z,16.80
2018-06-04T00:07:00.960Z,16.80
2018-06-04T00:09:28.633Z,16.80
2018-06-04T00:11:56.275Z,16.70
2018-06-04T00:16:51.596Z,16.70
2018-06-04T00:19:19.295Z,16.60
2018-06-04T00:21:47.070Z,16.60
2018-06-04T00:24:14.816Z,16.60
2018-06-04T00:26:42.468Z,16.60
2018-06-04T00:29:10.151Z,16.60
2018-06-04T00:31:37.969Z,16.60
2018-06-04T00:36:32.977Z,16.60
2018-06-04T00:39:00.752Z,16.70
2018-06-04T00:43:55.973Z,16.60
2018-06-04T00:46:23.529Z,16.60
2018-06-04T00:51:18.802Z,16.50
2018-06-04T00:53:46.497Z,16.40
2018-06-04T00:56:22.946Z,16.40
2018-06-04T00:58:50.649Z,16.30
2018-06-04T01:01:18.351Z,16.30
2018-06-04T01:03:45.987Z,16.20
2018-06-04T01:06:13.614Z,16.20
2018-06-04T01:08:41.276Z,16.20
2018-06-04T01:11:10.120Z,16.20
2018-06-04T01:13:37.921Z,16.20
2018-06-04T01:16:05.631Z,16.20
2018-06-04T01:18:33.281Z,16.10
2018-06-04T01:21:00.972Z,16.10
2018-06-04T01:23:28.636Z,16.10
2018-06-04T01:25:56.272Z,16.10
2018-06-04T01:28:23.808Z,16.10
2018-06-04T01:30:51.426Z,16.10
2018-06-04T01:33:18.966Z,16.10
2018-06-04T01:35:46.708Z,16.00
2018-06-04T01:38:14.340Z,16.00
2018-06-04T01:40:41.875Z,16.00
2018-06-04T01:43:09.416Z,15.90
2018-06-04T01:45:37.010Z,15.90
2018-06-04T01:50:32.244Z,15.90
2018-06-04T01:52:59.961Z,15.90
2018-06-04T01:55:27.812Z,15.80
2018-06-04T01:57:55.549Z,15.80
2018-06-04T02:00:23.163Z,15.80
2018-06-04T02:02:50.659Z,15.80
2018-06-04T02:05:18.400Z,15.80
2018-06-04T02:07:45.951Z,15.70
2018-06-04T02:10:13.772Z,15.70
2018-06-04T02:12:41.663Z,15.70
2018-06-04T02:15:09.395Z,15.70
2018-06-04T02:17:36.983Z,15.70
2018-06-04T02:20:04.657Z,15.70
2018-06-04T02:22:32.207Z,15.70
2018-06-04T02:24:59.780Z,15.60
2018-06-04T02:27:27.358Z,15.70
2018-06-04T02:32:22.836Z,15.80
2018-06-04T02:34:50.896Z,15.70
2018-06-04T02:37:18.444Z,15.70
2018-06-04T02:39:46.037Z,15.70
2018-06-04T02:42:13.664Z,15.70
2018-06-04T02:44:41.324Z,15.80
2018-06-04T02:47:08.881Z,15.80
2018-06-04T02:49:36.496Z,15.80
2018-06-04T02:52:04.279Z,15.70
2018-06-04T02:54:32.001Z,15.80
2018-06-04T02:56:59.780Z,15.70
2018-06-04T02:59:27.378Z,15.80
2018-06-04T03:01:55.024Z,15.70
2018-06-04T03:04:22.638Z,15.70
2018-06-04T03:06:50.205Z,15.80
2018-06-04T03:09:17.911Z,15.80
2018-06-04T03:11:45.615Z,15.80
2018-06-04T03:14:13.378Z,15.80
2018-06-04T03:16:41.398Z,15.80
2018-06-04T03:19:09.120Z,15.80
2018-06-04T03:21:36.791Z,15.80
2018-06-04T03:24:05.122Z,15.80
2018-06-04T03:26:32.847Z,15.80
2018-06-04T03:29:00.482Z,15.80
2018-06-04T03:31:28.144Z,15.80
2018-06-04T03:33:55.896Z,15.80
2018-06-04T03:36:25.205Z,15.80
2018-06-04T03:38:52.852Z,15.80
2018-06-04T03:41:20.504Z,15.80
2018-06-04T03:43:48.226Z,15.80
2018-06-04T03:46:15.777Z,15.90
2018-06-04T03:48:43.324Z,15.90
2018-06-04T03:51:10.888Z,15.90
2018-06-04T03:53:38.620Z,15.90
2018-06-04T03:56:06.190Z,16.00
2018-06-04T03:58:33.952Z,16.00
2018-06-04T04:01:01.708Z,16.00
2018-06-04T04:03:29.289Z,16.00
2018-06-04T04:05:57.024Z,16.00
2018-06-04T04:08:25.133Z,16.00
2018-06-04T04:10:52.783Z,16.10
2018-06-04T04:13:20.460Z,16.10
2018-06-04T04:15:48.241Z,16.20
2018-06-04T04:18:15.809Z,16.20
2018-06-04T04:20:43.528Z,16.20
2018-06-04T04:23:11.152Z,16.30
2018-06-04T04:25:38.688Z,16.40
2018-06-04T04:28:06.259Z,16.40
2018-06-04T04:30:33.962Z,16.50
2018-06-04T04:33:01.589Z,16.50
2018-06-04T04:37:56.836Z,16.70
2018-06-04T04:40:24.448Z,16.80
2018-06-04T04:42:52.173Z,16.90
2018-06-04T04:45:19.837Z,16.90
2018-06-04T04:47:47.412Z,17.00
2018-06-04T04:50:15.017Z,17.00
2018-06-04T04:52:43.795Z,17.50
2018-06-04T04:55:11.521Z,18.30
2018-06-04T04:57:39.120Z,18.40
2018-06-04T05:00:06.744Z,18.40
2018-06-04T05:02:34.437Z,18.40
2018-06-04T05:05:02.228Z,18.40
2018-06-04T05:07:29.872Z,18.40
2018-06-04T05:09:57.459Z,18.50
2018-06-04T05:12:25.030Z,18.50
2018-06-04T05:14:52.649Z,18.70
2018-06-04T05:17:20.328Z,19.00
2018-06-04T05:19:48.096Z,19.10
2018-06-04T05:22:15.648Z,19.50
2018-06-04T05:24:43.262Z,19.60
2018-06-04T05:27:10.869Z,19.60
2018-06-04T05:29:38.585Z,19.60
2018-06-04T05:32:06.881Z,19.60
2018-06-04T05:34:34.565Z,19.60
2018-06-04T05:37:02.303Z,19.50
2018-06-04T05:39:29.964Z,19.60
2018-06-04T05:41:57.647Z,19.60
2018-06-04T05:44:25.191Z,19.80
2018-06-04T05:46:52.884Z,19.80
2018-06-04T05:49:20.562Z,19.80
2018-06-04T05:51:48.248Z,19.90
2018-06-04T05:54:16.082Z,20.00
2018-06-04T05:56:43.840Z,20.10
2018-06-04T05:59:11.661Z,20.20
2018-06-04T06:01:39.286Z,20.20
2018-06-04T06:04:06.876Z,20.30
2018-06-04T06:06:34.641Z,20.30
2018-06-04T06:09:02.368Z,20.40
2018-06-04T06:11:29.953Z,20.40
2018-06-04T06:13:57.569Z,20.50
2018-06-04T06:16:25.231Z,20.60
2018-06-04T06:18:52.887Z,20.70
2018-06-04T06:21:22.065Z,20.90
2018-06-04T06:26:18.404Z,21.10
2018-06-04T06:28:46.107Z,21.30
2018-06-04T06:31:14.777Z,21.80
2018-06-04T06:33:42.422Z,22.70
2018-06-04T06:36:09.984Z,23.00
2018-06-04T06:38:37.853Z,22.90
2018-06-04T06:41:05.404Z,23.50
2018-06-04T06:43:32.980Z,23.70
2018-06-04T06:46:00.749Z,24.30
2018-06-04T06:48:28.382Z,25.10
2018-06-04T06:50:56.076Z,26.60
2018-06-04T06:53:23.677Z,27.40
2018-06-04T06:55:51.320Z,27.60
2018-06-04T06:58:19.228Z,28.50
2018-06-04T07:00:46.812Z,28.50
2018-06-04T07:03:14.437Z,28.90
2018-06-04T07:05:42.081Z,29.10
2018-06-04T07:08:09.669Z,29.40
2018-06-04T07:10:37.204Z,30.00
2018-06-04T07:13:04.862Z,30.00
2018-06-04T07:15:32.468Z,30.50
2018-06-04T07:18:00.392Z,30.40
2018-06-04T07:20:28.316Z,30.70
2018-06-04T07:22:56.185Z,30.80
2018-06-04T07:25:24.616Z,31.00
2018-06-04T07:27:52.205Z,31.40
2018-06-04T07:30:19.815Z,31.60
2018-06-04T07:32:47.384Z,32.10
2018-06-04T07:35:15.149Z,32.30
2018-06-04T07:37:42.994Z,32.50
2018-06-04T07:40:10.565Z,32.90
2018-06-04T07:42:38.267Z,32.90
2018-06-04T07:45:06.315Z,32.90
2018-06-04T07:47:33.994Z,33.20
2018-06-04T07:50:01.928Z,33.40
2018-06-04T07:52:29.585Z,32.90
2018-06-04T07:54:57.320Z,33.50
2018-06-04T07:57:24.977Z,33.60
2018-06-04T07:59:52.582Z,33.80
2018-06-04T08:02:20.135Z,33.80
2018-06-04T08:04:47.728Z,33.80
2018-06-04T08:07:15.509Z,33.90
2018-06-04T08:09:43.321Z,33.90
2018-06-04T08:12:11.287Z,34.50
2018-06-04T08:14:38.956Z,34.10
2018-06-04T08:17:08.447Z,33.50
2018-06-04T08:19:36.314Z,33.20
2018-06-04T08:22:04.096Z,33.60
2018-06-04T08:26:59.338Z,34.50
2018-06-04T08:29:27.282Z,34.80
2018-06-04T08:31:54.981Z,34.40
2018-06-04T08:34:22.636Z,34.00
2018-06-04T08:39:18.119Z,34.60
2018-06-04T08:41:45.848Z,34.30
2018-06-04T08:44:13.626Z,34.50
2018-06-04T08:46:41.509Z,34.40
2018-06-04T08:49:09.124Z,34.80
2018-06-04T08:51:36.778Z,35.10
2018-06-04T08:54:04.358Z,35.40
2018-06-04T08:56:31.926Z,35.60
2018-06-04T08:58:59.513Z,36.20
2018-06-04T09:01:27.329Z,35.30
2018-06-04T09:03:54.976Z,34.00
2018-06-04T09:06:22.568Z,35.00
2018-06-04T09:08:50.317Z,34.70
2018-06-04T09:11:17.868Z,35.10
2018-06-04T09:13:45.736Z,35.40
2018-06-04T09:18:40.870Z,35.80
2018-06-04T09:21:08.441Z,35.90
2018-06-04T09:23:36.048Z,36.20
2018-06-04T09:26:03.754Z,36.10
2018-06-04T09:28:31.512Z,35.60
2018-06-04T09:30:59.206Z,35.80
2018-06-04T09:33:26.793Z,35.50
2018-06-04T09:35:55.125Z,35.20
2018-06-04T09:38:22.893Z,36.20
2018-06-04T09:40:50.809Z,35.90
2018-06-04T09:43:18.770Z,35.70
2018-06-04T09:45:46.369Z,36.00
2018-06-04T09:48:13.984Z,35.40
2018-06-04T09:53:09.233Z,35.40
2018-06-04T09:55:36.823Z,34.90
2018-06-04T09:58:04.464Z,35.80
2018-06-04T10:00:34.850Z,35.20
2018-06-04T10:03:03.649Z,35.50
2018-06-04T10:05:31.315Z,35.10
2018-06-04T10:07:59.000Z,35.50
2018-06-04T10:10:26.821Z,35.80
2018-06-04T10:12:55.137Z,36.10
2018-06-04T10:15:22.868Z,35.90
2018-06-04T10:17:50.875Z,36.40
2018-06-04T10:20:18.632Z,36.60
2018-06-04T10:22:46.225Z,35.60
2018-06-04T10:25:13.826Z,35.20
2018-06-04T10:27:41.523Z,33.90
2018-06-04T10:30:09.194Z,33.40
2018-06-04T10:32:36.799Z,34.00
2018-06-04T10:35:04.408Z,34.20
2018-06-04T10:37:32.003Z,34.00
2018-06-04T10:39:59.869Z,34.30
2018-06-04T10:42:27.583Z,33.70
2018-06-04T10:44:55.223Z,33.00
2018-06-04T10:47:23.050Z,33.30
2018-06-04T10:49:50.708Z,32.30
2018-06-04T10:52:18.291Z,32.20
2018-06-04T10:54:45.935Z,31.40
2018-06-04T10:57:13.608Z,31.40
2018-06-04T10:59:41.324Z,30.90
2018-06-04T11:02:12.095Z,31.00
2018-06-04T11:04:39.681Z,31.00
2018-06-04T11:07:10.054Z,30.90
2018-06-04T11:09:38.696Z,30.70
2018-06-04T11:12:06.382Z,30.70
2018-06-04T11:14:34.210Z,30.50
2018-06-04T11:17:02.192Z,30.50
2018-06-04T11:19:30.201Z,30.90
2018-06-04T11:21:57.828Z,30.80
2018-06-04T11:24:26.233Z,30.40
2018-06-04T11:26:53.921Z,30.30
2018-06-04T11:29:21.520Z,30.80
2018-06-04T11:31:49.067Z,30.30
2018-06-04T11:34:16.894Z,30.30
2018-06-04T11:36:44.495Z,29.90
2018-06-04T11:39:12.071Z,30.00
2018-06-04T11:41:39.772Z,30.00
2018-06-04T11:44:07.607Z,30.10
2018-06-04T11:46:35.233Z,30.00
2018-06-04T11:49:02.893Z,29.60
2018-06-04T11:51:30.850Z,30.00
2018-06-04T11:53:58.552Z,30.10
2018-06-04T11:56:26.246Z,30.60
2018-06-04T11:58:53.862Z,30.50
2018-06-04T12:01:21.440Z,30.40
2018-06-04T12:03:49.016Z,30.60
2018-06-04T12:06:16.797Z,30.20
2018-06-04T12:08:44.420Z,29.90
2018-06-04T12:11:12.400Z,30.00
2018-06-04T12:13:40.063Z,29.70
2018-06-04T12:16:07.740Z,29.80
2018-06-04T12:18:35.342Z,29.80
2018-06-04T12:21:03.270Z,29.80
2018-06-04T12:23:31.256Z,29.90
2018-06-04T12:25:58.899Z,29.90
2018-06-04T12:28:26.592Z,29.80
2018-06-04T12:30:54.203Z,29.90
2018-06-04T12:33:22.714Z,29.60
2018-06-04T12:35:50.431Z,29.40
2018-06-04T12:38:18.070Z,29.20
2018-06-04T12:40:45.675Z,28.80
2018-06-04T12:43:13.328Z,28.70
2018-06-04T12:45:40.907Z,28.60
2018-06-04T12:48:08.483Z,29.30
2018-06-04T12:50:36.089Z,29.30
2018-06-04T12:53:03.748Z,29.10
2018-06-04T12:57:59.110Z,29.50
2018-06-04T13:00:26.677Z,29.60
2018-06-04T13:02:54.245Z,29.20
2018-06-04T13:05:22.880Z,28.80
2018-06-04T13:07:56.044Z,28.70
2018-06-04T13:10:39.429Z,28.80
2018-06-04T13:13:08.088Z,29.00
2018-06-04T13:18:09.680Z,29.10
2018-06-04T13:20:39.080Z,29.40
2018-06-04T13:23:06.650Z,29.40
2018-06-04T13:25:34.486Z,29.50
2018-06-04T13:28:02.199Z,29.60
2018-06-04T13:30:29.955Z,29.20
2018-06-04T13:32:57.634Z,29.00
2018-06-04T13:35:25.484Z,28.80
2018-06-04T13:37:53.190Z,28.60
2018-06-04T13:40:20.840Z,28.80
2018-06-04T13:42:48.629Z,28.60
2018-06-04T13:47:43.807Z,28.40
2018-06-04T13:50:11.433Z,28.20
2018-06-04T13:52:39.251Z,28.30
2018-06-04T13:55:06.967Z,28.20
2018-06-04T13:57:34.688Z,28.30
2018-06-04T14:00:02.424Z,28.20
2018-06-04T14:02:30.098Z,28.10
2018-06-04T14:04:57.789Z,28.00
2018-06-04T14:07:25.532Z,27.90
2018-06-04T14:09:53.620Z,27.70
2018-06-04T14:12:21.204Z,27.60
2018-06-04T14:14:48.810Z,27.30
2018-06-04T14:17:16.456Z,27.20
2018-06-04T14:19:44.266Z,27.50
2018-06-04T14:22:14.334Z,27.80
2018-06-04T14:24:42.013Z,27.40
2018-06-04T14:27:09.621Z,27.60
2018-06-04T14:29:37.304Z,27.70
2018-06-04T14:32:05.295Z,27.80
2018-06-04T14:34:32.932Z,28.00
2018-06-04T14:37:00.634Z,28.10
2018-06-04T14:39:28.209Z,28.30
2018-06-04T14:44:23.293Z,28.30
2018-06-04T14:46:51.688Z,28.10
2018-06-04T14:49:19.313Z,28.30
2018-06-04T14:51:47.145Z,28.20
2018-06-04T14:54:14.813Z,28.30
2018-06-04T14:56:42.479Z,28.40
2018-06-04T14:59:10.134Z,28.50
2018-06-04T15:01:37.863Z,28.40
2018-06-04T15:04:05.640Z,28.30
2018-06-04T15:06:33.443Z,28.20
2018-06-04T15:11:28.737Z,27.90
2018-06-04T15:13:56.540Z,28.00
2018-06-04T15:16:24.104Z,27.70
2018-06-04T15:18:51.841Z,27.50
2018-06-04T15:21:19.427Z,27.30
2018-06-04T15:23:47.178Z,27.20
2018-06-04T15:26:14.819Z,26.80
2018-06-04T15:28:42.739Z,26.70
2018-06-04T15:31:11.598Z,26.60
2018-06-04T15:33:39.237Z,26.50
2018-06-04T15:36:06.973Z,26.40
2018-06-04T15:38:34.613Z,26.40
2018-06-04T15:41:02.214Z,26.30
2018-06-04T15:43:29.809Z,26.50
2018-06-04T15:45:57.488Z,26.50
2018-06-04T15:48:26.341Z,26.60
2018-06-04T15:50:56.467Z,26.70
2018-06-04T15:53:25.271Z,26.70
2018-06-04T15:55:52.914Z,26.50
2018-06-04T15:58:20.496Z,26.40
2018-06-04T16:00:48.225Z,26.40
2018-06-04T16:03:15.934Z,26.40
2018-06-04T16:05:45.644Z,26.40
2018-06-04T16:08:14.446Z,26.30
2018-06-04T16:13:09.728Z,26.30
2018-06-04T16:15:37.312Z,26.30
2018-06-04T16:18:04.956Z,26.30
2018-06-04T16:20:32.536Z,26.30
2018-06-04T16:23:00.112Z,26.30
2018-06-04T16:25:27.729Z,26.20
2018-06-04T16:27:55.448Z,26.20
2018-06-04T16:30:23.052Z,26.10
2018-06-04T16:32:51.990Z,26.20
2018-06-04T16:35:20.029Z,26.10
2018-06-04T16:37:47.631Z,26.10
2018-06-04T16:40:15.428Z,26.00
2018-06-04T16:42:43.081Z,25.90
2018-06-04T16:45:10.706Z,25.90
2018-06-04T16:47:38.227Z,25.80
2018-06-04T16:50:05.913Z,25.80
2018-06-04T16:52:33.516Z,25.90
2018-06-04T16:55:01.511Z,25.90
2018-06-04T16:57:29.197Z,25.80
2018-06-04T16:59:57.283Z,25.90
2018-06-04T17:02:24.971Z,25.70
2018-06-04T17:04:52.698Z,25.60
2018-06-04T17:07:20.400Z,25.40
2018-06-04T17:09:48.120Z,25.40
2018-06-04T17:12:17.109Z,25.50
2018-06-04T17:14:44.749Z,25.40
2018-06-04T17:19:39.880Z,25.30
2018-06-04T17:22:07.525Z,25.40
2018-06-04T17:24:35.171Z,25.40
2018-06-04T17:27:02.918Z,25.40
2018-06-04T17:29:30.809Z,25.20
2018-06-04T17:31:58.595Z,25.10
2018-06-04T17:34:26.151Z,25.10
2018-06-04T17:36:53.787Z,25.10
2018-06-04T17:39:21.448Z,25.00
2018-06-04T17:41:49.065Z,24.90
2018-06-04T17:44:16.721Z,24.90
2018-06-04T17:46:44.629Z,24.80
2018-06-04T17:49:14.595Z,24.80
2018-06-04T17:51:43.047Z,24.80
2018-06-04T17:54:10.910Z,24.70
2018-06-04T17:56:38.787Z,24.70
2018-06-04T17:59:06.426Z,24.80
2018-06-04T18:01:40.247Z,24.80
2018-06-04T18:04:09.160Z,24.90
2018-06-04T18:06:36.913Z,24.90
2018-06-04T18:09:07.763Z,24.70
2018-06-04T18:11:35.486Z,24.70
2018-06-04T18:14:03.737Z,24.60
2018-06-04T18:16:31.635Z,24.70
2018-06-04T18:18:59.251Z,24.60
2018-06-04T18:21:26.923Z,24.60
2018-06-04T18:23:54.511Z,24.60
2018-06-04T18:26:22.127Z,24.40
2018-06-04T18:28:50.377Z,24.40
2018-06-04T18:31:18.084Z,24.30
2018-06-04T18:33:47.448Z,24.30
2018-06-04T18:36:15.174Z,24.20
2018-06-04T18:38:48.846Z,24.10
2018-06-04T18:41:16.739Z,24.20
2018-06-04T18:43:44.422Z,24.10
2018-06-04T18:46:12.097Z,24.00
2018-06-04T18:48:39.715Z,24.00
2018-06-04T18:51:07.358Z,23.90
2018-06-04T18:53:35.384Z,23.70
2018-06-04T18:56:03.187Z,23.70
2018-06-04T18:58:30.876Z,23.80
2018-06-04T19:00:58.533Z,23.80
2018-06-04T19:03:26.323Z,23.80
2018-06-04T19:05:54.509Z,23.60
2018-06-04T19:08:22.237Z,23.50
2018-06-04T19:10:50.026Z,23.40
2018-06-04T19:13:18.060Z,23.30
2018-06-04T19:15:45.911Z,23.30
2018-06-04T19:18:14.517Z,23.20
2018-06-04T19:20:42.218Z,23.10
2018-06-04T19:23:09.883Z,22.90
2018-06-04T19:25:37.496Z,22.80
2018-06-04T19:28:05.509Z,22.80
2018-06-04T19:30:33.330Z,22.70
2018-06-04T19:33:01.140Z,22.70
2018-06-04T19:35:28.823Z,22.60
2018-06-04T19:37:56.815Z,22.60
2018-06-04T19:40:24.604Z,22.50
2018-06-04T19:42:52.384Z,22.50
2018-06-04T19:45:20.549Z,22.50
2018-06-04T19:47:48.340Z,22.50
2018-06-04T19:50:15.975Z,22.40
2018-06-04T19:52:44.130Z,22.40
2018-06-04T19:55:12.056Z,22.20
2018-06-04T20:02:35.150Z,22.00
2018-06-04T20:05:03.592Z,22.00
2018-06-04T20:07:31.603Z,21.90
2018-06-04T20:09:59.580Z,21.80
2018-06-04T20:12:27.222Z,21.70
2018-06-04T20:14:55.165Z,21.70
2018-06-04T20:17:22.952Z,21.70
2018-06-04T20:22:19.079Z,21.60
2018-06-04T20:24:47.242Z,21.50
2018-06-04T20:27:14.958Z,21.50
2018-06-04T20:29:42.732Z,21.50
2018-06-04T20:32:10.380Z,21.40
2018-06-04T20:34:38.228Z,21.40
2018-06-04T20:37:06.164Z,21.20
2018-06-04T20:39:33.944Z,21.20
2018-06-04T20:42:02.020Z,21.10
2018-06-04T20:46:57.354Z,21.00
2018-06-04T20:49:26.148Z,21.00
2018-06-04T20:51:54.794Z,20.90
2018-06-04T20:54:22.462Z,20.80
2018-06-04T20:56:50.135Z,20.80
2018-06-04T20:59:17.949Z,20.80
2018-06-04T21:04:14.712Z,20.80
2018-06-04T21:06:43.721Z,20.70
2018-06-04T21:09:12.447Z,20.60
2018-06-04T21:11:40.146Z,20.60
2018-06-04T21:14:07.904Z,20.50
2018-06-04T21:16:36.062Z,20.50
2018-06-04T21:24:00.490Z,20.40
2018-06-04T21:26:28.515Z,20.30
2018-06-04T21:28:56.177Z,20.20
2018-06-04T21:31:23.904Z,20.10
2018-06-04T21:33:51.612Z,20.20
2018-06-04T21:36:19.583Z,20.10
2018-06-04T21:38:47.362Z,20.10
2018-06-04T21:41:15.158Z,20.10
2018-06-04T21:43:43.152Z,20.00
2018-06-04T21:46:11.601Z,20.00
2018-06-04T21:48:44.208Z,19.90
2018-06-04T21:51:12.145Z,19.90
2018-06-04T21:53:39.830Z,19.90
2018-06-04T21:56:07.540Z,19.80
2018-06-04T21:58:35.212Z,19.70
2018-06-04T22:01:03.087Z,19.70
2018-06-04T22:03:30.699Z,19.60
2018-06-04T22:05:58.397Z,19.70
2018-06-04T22:08:26.075Z,19.60
2018-06-04T22:10:53.684Z,19.60
2018-06-04T22:13:21.318Z,19.60
2018-06-04T22:15:49.299Z,19.40
2018-06-04T22:18:18.019Z,19.40
2018-06-04T22:20:45.767Z,19.30
2018-06-04T22:23:13.485Z,19.30
2018-06-04T22:25:41.159Z,19.20
2018-06-04T22:28:09.791Z,19.10
2018-06-04T22:30:37.586Z,19.10
2018-06-04T22:33:05.262Z,19.10
2018-06-04T22:35:32.893Z,19.00
2018-06-04T22:38:00.584Z,19.00
2018-06-04T22:40:28.150Z,18.90
2018-06-04T22:42:55.905Z,18.90
2018-06-04T22:45:23.781Z,18.90
2018-06-04T22:47:51.345Z,18.80
2018-06-04T22:50:19.923Z,18.80
2018-06-04T22:52:47.765Z,18.70
2018-06-04T22:55:15.512Z,18.80
2018-06-04T22:57:43.600Z,18.70
2018-06-04T23:00:20.503Z,18.60
2018-06-04T23:02:48.458Z,18.60
2018-06-04T23:05:16.161Z,18.60
2018-06-04T23:07:43.951Z,18.50
2018-06-04T23:10:11.494Z,18.50
2018-06-04T23:12:39.163Z,18.40
2018-06-04T23:15:06.554Z,18.40
2018-06-04T23:17:34.129Z,18.30
2018-06-04T23:20:01.978Z,18.20
2018-06-04T23:22:29.766Z,18.10
2018-06-04T23:24:57.556Z,18.00
2018-06-04T23:27:25.395Z,18.00
2018-06-04T23:29:53.016Z,18.00
2018-06-04T23:32:22.172Z,18.00
2018-06-04T23:34:49.883Z,18.00
2018-06-04T23:37:17.556Z,18.00
2018-06-04T23:39:45.176Z,18.00
2018-06-04T23:42:12.872Z,17.90
2018-06-04T23:44:40.467Z,17.90
2018-06-04T23:47:08.024Z,17.80
2018-06-04T23:49:35.643Z,17.70
2018-06-04T23:52:03.567Z,17.70
2018-06-04T23:54:31.211Z,17.60
2018-06-04T23:56:58.767Z,17.50
2018-06-04T23:59:26.620Z,17.60
